createdAt,value
2022-10-06T00:00:01.127Z,14.32
2022-10-06T00:02:28.495Z,14.18
2022-10-06T00:04:55.382Z,14.09
2022-10-06T00:07:22.091Z,14.03
2022-10-06T00:09:48.880Z,14.05
2022-10-06T00:12:15.801Z,13.90
2022-10-06T00:14:42.499Z,13.86
2022-10-06T00:17:09.222Z,13.82
2022-10-06T00:19:35.852Z,13.74
2022-10-06T00:22:02.539Z,13.77
2022-10-06T00:24:29.384Z,13.72
2022-10-06T00:27:02.408Z,13.66
2022-10-06T00:29:29.525Z,13.63
2022-10-06T00:31:56.363Z,13.78
2022-10-06T00:34:23.010Z,13.81
2022-10-06T00:36:49.792Z,13.81
2022-10-06T00:39:16.497Z,13.80
2022-10-06T00:41:45.911Z,13.80
2022-10-06T00:44:12.585Z,13.82
2022-10-06T00:46:51.302Z,13.77
2022-10-06T00:49:35.649Z,13.72
2022-10-06T00:52:11.057Z,13.52
2022-10-06T00:54:38.996Z,13.33
2022-10-06T00:57:13.098Z,13.19
2022-10-06T00:59:41.111Z,12.98
2022-10-06T01:02:21.598Z,12.98
2022-10-06T01:04:56.439Z,12.95
2022-10-06T01:07:28.299Z,12.96
2022-10-06T01:09:58.075Z,13.00
2022-10-06T01:12:29.539Z,13.10
2022-10-06T01:14:57.559Z,13.20
2022-10-06T01:17:39.815Z,13.30
2022-10-06T01:20:15.161Z,13.25
2022-10-06T01:22:55.865Z,13.18
2022-10-06T01:25:23.120Z,13.12
2022-10-06T01:27:54.931Z,13.12
2022-10-06T01:30:31.507Z,13.23
2022-10-06T01:32:58.721Z,13.29
2022-10-06T01:35:25.557Z,13.25
2022-10-06T01:38:00.404Z,13.17
2022-10-06T01:40:29.333Z,13.16
2022-10-06T01:42:56.889Z,13.20
2022-10-06T01:45:23.613Z,13.17
2022-10-06T01:47:53.327Z,13.26
2022-10-06T01:50:20.218Z,13.28
2022-10-06T01:52:46.890Z,13.37
2022-10-06T01:55:14.655Z,13.41
2022-10-06T01:57:48.484Z,13.39
2022-10-06T02:00:15.954Z,13.35
2022-10-06T02:02:45.747Z,13.25
2022-10-06T02:05:14.636Z,13.24
2022-10-06T02:07:41.701Z,13.23
2022-10-06T02:10:09.604Z,12.94
2022-10-06T02:12:36.277Z,12.72
2022-10-06T02:15:03.951Z,12.59
2022-10-06T02:17:30.800Z,12.41
2022-10-06T02:19:57.454Z,12.27
2022-10-06T02:22:24.393Z,12.12
2022-10-06T02:24:51.112Z,12.06
2022-10-06T02:27:17.878Z,11.88
2022-10-06T02:29:45.023Z,11.71
2022-10-06T02:32:11.804Z,11.65
2022-10-06T02:34:38.452Z,11.56
2022-10-06T02:37:05.517Z,11.54
2022-10-06T02:39:32.174Z,11.54
2022-10-06T02:41:58.834Z,11.45
2022-10-06T02:44:25.476Z,11.36
2022-10-06T02:46:53.688Z,11.32
2022-10-06T02:49:23.450Z,11.32
2022-10-06T02:51:50.380Z,11.32
2022-10-06T02:54:17.426Z,11.28
2022-10-06T02:56:44.117Z,11.29
2022-10-06T02:59:10.817Z,11.28
2022-10-06T03:01:40.279Z,11.22
2022-10-06T03:04:11.998Z,11.23
2022-10-06T03:06:39.070Z,11.28
2022-10-06T03:09:09.042Z,11.40
2022-10-06T03:11:41.186Z,11.37
2022-10-06T03:14:08.654Z,11.35
2022-10-06T03:16:42.718Z,11.33
2022-10-06T03:19:13.072Z,11.33
2022-10-06T03:21:43.970Z,11.48
2022-10-06T03:24:11.673Z,11.51
2022-10-06T03:26:44.036Z,11.52
2022-10-06T03:29:12.349Z,11.52
2022-10-06T03:31:40.679Z,11.65
2022-10-06T03:34:07.797Z,11.58
2022-10-06T03:36:36.308Z,11.56
2022-10-06T03:39:06.244Z,11.57
2022-10-06T03:41:37.845Z,11.51
2022-10-06T03:44:07.556Z,11.48
2022-10-06T03:46:37.069Z,11.49
2022-10-06T03:49:05.201Z,11.47
2022-10-06T03:51:40.100Z,11.51
2022-10-06T03:54:12.885Z,11.56
2022-10-06T03:56:42.254Z,11.58
2022-10-06T03:59:13.684Z,11.51
2022-10-06T04:01:45.978Z,11.40
2022-10-06T04:04:14.479Z,11.47
2022-10-06T04:06:44.774Z,11.44
2022-10-06T04:09:15.599Z,11.41
2022-10-06T04:11:45.866Z,11.33
2022-10-06T04:14:16.376Z,11.36
2022-10-06T04:16:50.464Z,11.30
2022-10-06T04:19:18.686Z,11.26
2022-10-06T04:21:47.898Z,11.25
2022-10-06T04:24:18.632Z,11.25
2022-10-06T04:26:52.455Z,11.29
2022-10-06T04:29:19.430Z,11.25
2022-10-06T04:31:47.024Z,11.18
2022-10-06T04:34:13.794Z,11.23
2022-10-06T04:36:43.026Z,11.21
2022-10-06T04:39:12.832Z,11.24
2022-10-06T04:41:42.815Z,11.30
2022-10-06T04:44:10.309Z,11.27
2022-10-06T04:46:43.110Z,11.29
2022-10-06T04:49:18.573Z,11.30
2022-10-06T04:51:49.392Z,11.35
2022-10-06T04:54:16.627Z,11.31
2022-10-06T04:56:43.387Z,11.36
2022-10-06T05:07:17.801Z,11.35
2022-10-06T05:12:25.727Z,11.42
2022-10-06T05:14:52.516Z,11.38
2022-10-06T05:17:21.853Z,11.49
2022-10-06T05:25:10.332Z,11.36
2022-10-06T05:27:37.029Z,11.29
2022-10-06T05:30:04.189Z,11.28
2022-10-06T05:32:35.813Z,11.34
2022-10-06T05:37:48.967Z,11.29
2022-10-06T06:10:01.787Z,11.36
2022-10-06T06:58:51.571Z,13.02
2022-10-06T07:01:23.163Z,13.29
2022-10-06T07:03:59.486Z,13.62
2022-10-06T07:45:29.476Z,15.55
2022-10-06T07:48:02.544Z,14.90
2022-10-06T08:15:13.668Z,15.38
2022-10-06T08:17:41.344Z,15.96
2022-10-06T08:20:13.064Z,16.35
2022-10-06T08:22:41.440Z,16.22
2022-10-06T08:25:10.870Z,16.51
2022-10-06T08:27:44.815Z,16.09
2022-10-06T08:30:15.532Z,15.69
2022-10-06T08:32:43.324Z,15.63
2022-10-06T08:35:11.452Z,16.14
2022-10-06T08:37:38.296Z,15.93
2022-10-06T08:40:08.122Z,16.44
2022-10-06T08:42:49.187Z,16.21
2022-10-06T08:45:38.851Z,16.16
2022-10-06T08:48:28.763Z,16.46
2022-10-06T08:51:05.976Z,16.53
2022-10-06T08:53:59.074Z,17.15
2022-10-06T08:57:08.628Z,17.32
2022-10-06T08:59:36.850Z,16.85
2022-10-06T09:02:49.002Z,16.71
2022-10-06T09:05:26.701Z,16.58
2022-10-06T09:08:47.541Z,16.47
2022-10-06T09:11:46.758Z,16.98
2022-10-06T09:14:28.727Z,17.09
2022-10-06T09:17:06.734Z,17.11
2022-10-06T09:20:07.162Z,17.34
2022-10-06T09:22:36.675Z,17.44
2022-10-06T09:25:35.997Z,17.38
2022-10-06T09:28:05.163Z,17.33
2022-10-06T09:30:40.379Z,16.62
2022-10-06T09:33:52.322Z,16.86
2022-10-06T09:36:20.389Z,16.73
2022-10-06T09:39:36.542Z,17.17
2022-10-06T09:42:23.451Z,17.21
2022-10-06T09:45:25.422Z,17.17
2022-10-06T09:47:59.349Z,16.54
2022-10-06T09:50:31.142Z,15.85
2022-10-06T09:53:37.605Z,15.47
2022-10-06T09:56:20.572Z,15.29
2022-10-06T09:59:39.816Z,15.25
2022-10-06T10:02:42.989Z,15.39
2022-10-06T10:05:31.828Z,15.62
2022-10-06T10:08:20.023Z,15.48
2022-10-06T10:10:47.714Z,15.32
2022-10-06T10:13:43.271Z,15.15
2022-10-06T10:16:19.600Z,15.22
2022-10-06T10:18:55.325Z,15.35
2022-10-06T10:21:34.566Z,15.61
2022-10-06T10:24:16.867Z,15.97
2022-10-06T10:27:24.798Z,16.68
2022-10-06T10:30:25.536Z,17.67
2022-10-06T10:33:05.232Z,18.41
2022-10-06T10:35:50.675Z,18.82
2022-10-06T10:38:25.384Z,18.37
2022-10-06T10:41:14.562Z,17.52
2022-10-06T10:44:30.612Z,17.72
2022-10-06T10:47:35.325Z,16.97
2022-10-06T10:50:47.800Z,16.45
2022-10-06T10:53:28.359Z,16.57
2022-10-06T10:55:56.848Z,16.65
2022-10-06T10:58:38.775Z,16.80
2022-10-06T11:01:35.180Z,17.18
2022-10-06T11:04:16.834Z,17.89
2022-10-06T11:07:09.419Z,18.13
2022-10-06T11:10:02.437Z,18.44
2022-10-06T11:12:52.209Z,18.95
2022-10-06T11:16:17.482Z,19.12
2022-10-06T11:19:24.949Z,18.45
2022-10-06T11:22:14.927Z,17.39
2022-10-06T11:24:57.607Z,16.88
2022-10-06T11:28:39.600Z,16.86
2022-10-06T11:31:41.119Z,17.45
2022-10-06T11:34:12.767Z,17.89
2022-10-06T11:37:13.337Z,18.02
2022-10-06T11:40:16.730Z,17.62
2022-10-06T11:42:55.788Z,17.21
2022-10-06T11:46:01.952Z,17.04
2022-10-06T11:48:35.895Z,17.00
2022-10-06T11:51:24.725Z,17.26
2022-10-06T11:53:56.508Z,17.41
2022-10-06T11:56:39.605Z,17.35
2022-10-06T11:59:34.089Z,17.49
2022-10-06T12:02:03.955Z,17.67
2022-10-06T12:04:30.843Z,17.54
2022-10-06T12:07:00.298Z,17.24
2022-10-06T12:09:31.387Z,17.62
2022-10-06T12:12:19.148Z,17.99
2022-10-06T12:18:21.978Z,17.86
2022-10-06T12:21:11.670Z,18.09
2022-10-06T12:24:19.795Z,17.94
2022-10-06T12:27:33.722Z,17.58
2022-10-06T12:30:18.138Z,17.43
2022-10-06T12:32:57.794Z,17.54
2022-10-06T12:35:40.226Z,17.64
2022-10-06T12:38:41.441Z,17.32
2022-10-06T12:41:14.624Z,17.28
2022-10-06T12:43:57.233Z,17.19
2022-10-06T12:46:44.196Z,17.06
2022-10-06T12:49:45.840Z,17.14
2022-10-06T12:52:53.778Z,17.27
2022-10-06T12:56:00.589Z,17.45
2022-10-06T12:58:33.874Z,17.65
2022-10-06T13:01:11.827Z,17.84
2022-10-06T13:03:39.790Z,17.82
2022-10-06T13:06:09.450Z,17.19
2022-10-06T13:08:47.739Z,16.64
2022-10-06T13:11:27.353Z,16.09
2022-10-06T13:14:07.150Z,16.22
2022-10-06T13:16:41.008Z,16.12
2022-10-06T13:19:22.600Z,15.98
2022-10-06T13:21:50.160Z,15.86
2022-10-06T13:24:26.797Z,16.00
2022-10-06T13:26:57.191Z,16.00
2022-10-06T13:29:26.470Z,16.13
2022-10-06T13:31:56.835Z,16.48
2022-10-06T13:34:43.378Z,16.59
2022-10-06T13:37:15.790Z,17.02
2022-10-06T13:39:42.804Z,16.89
2022-10-06T13:42:22.040Z,16.57
2022-10-06T13:45:03.884Z,16.23
2022-10-06T13:47:31.958Z,16.13
2022-10-06T13:50:20.470Z,16.09
2022-10-06T13:52:50.671Z,15.92
2022-10-06T13:55:32.612Z,15.89
2022-10-06T13:58:05.216Z,16.12
2022-10-06T14:01:01.899Z,16.65
2022-10-06T14:03:38.005Z,16.61
2022-10-06T14:06:26.347Z,16.29
2022-10-06T14:09:11.589Z,16.16
2022-10-06T14:11:39.141Z,15.97
2022-10-06T14:14:17.874Z,16.31
2022-10-06T14:16:53.393Z,16.26
2022-10-06T14:19:37.332Z,16.35
2022-10-06T14:22:26.596Z,16.42
2022-10-06T14:24:53.800Z,16.77
2022-10-06T14:27:33.445Z,16.84
2022-10-06T14:30:00.842Z,16.66
2022-10-06T14:32:30.446Z,16.84
2022-10-06T14:34:57.142Z,17.09
2022-10-06T14:37:23.928Z,16.70
2022-10-06T14:39:57.039Z,16.98
2022-10-06T14:42:30.135Z,17.12
2022-10-06T14:44:57.865Z,17.36
2022-10-06T14:47:24.891Z,17.43
2022-10-06T14:49:52.850Z,17.66
2022-10-06T14:52:19.545Z,17.62
2022-10-06T14:54:49.234Z,17.41
2022-10-06T14:57:20.449Z,17.22
2022-10-06T14:59:51.594Z,16.74
2022-10-06T15:02:21.241Z,16.59
2022-10-06T15:04:48.083Z,16.53
2022-10-06T15:07:33.745Z,16.36
2022-10-06T15:10:00.512Z,16.30
2022-10-06T15:12:31.714Z,16.35
2022-10-06T15:15:00.681Z,16.28
2022-10-06T15:17:28.462Z,16.19
2022-10-06T15:19:55.105Z,16.09
2022-10-06T15:22:22.049Z,15.71
2022-10-06T15:24:51.362Z,15.44
2022-10-06T15:27:36.971Z,15.05
2022-10-06T15:30:04.446Z,14.78
2022-10-06T15:32:31.129Z,14.56
2022-10-06T15:34:58.210Z,14.49
2022-10-06T15:37:25.234Z,14.36
2022-10-06T15:39:54.921Z,14.30
2022-10-06T15:42:24.223Z,14.21
2022-10-06T15:44:51.752Z,14.19
2022-10-06T15:47:20.872Z,14.07
2022-10-06T15:49:49.292Z,14.00
2022-10-06T15:52:17.511Z,13.89
2022-10-06T15:54:46.697Z,13.81
2022-10-06T15:57:20.300Z,13.75
2022-10-06T15:59:47.980Z,13.60
2022-10-06T16:02:18.030Z,13.51
2022-10-06T16:05:04.603Z,13.45
2022-10-06T16:07:34.942Z,13.39
2022-10-06T16:10:01.609Z,13.33
2022-10-06T16:12:28.604Z,13.24
2022-10-06T16:14:55.424Z,13.23
2022-10-06T16:17:22.054Z,13.13
2022-10-06T16:19:48.969Z,13.11
2022-10-06T16:22:19.307Z,13.07
2022-10-06T16:24:52.989Z,12.95
2022-10-06T16:27:19.653Z,12.83
2022-10-06T16:29:46.466Z,12.81
2022-10-06T16:32:13.163Z,12.71
2022-10-06T16:34:39.839Z,12.60
2022-10-06T16:37:06.535Z,12.50
2022-10-06T16:39:33.210Z,12.43
2022-10-06T16:41:59.872Z,12.42
2022-10-06T16:44:27.288Z,12.36
2022-10-06T16:46:54.513Z,12.26
2022-10-06T16:49:24.761Z,12.20
2022-10-06T16:51:52.208Z,12.11
2022-10-06T16:54:19.002Z,12.05
2022-10-06T16:56:55.216Z,11.94
2022-10-06T16:59:28.866Z,11.90
2022-10-06T17:01:55.921Z,11.85
2022-10-06T17:04:25.621Z,11.84
2022-10-06T17:06:58.779Z,11.87
2022-10-06T17:09:31.088Z,11.84
2022-10-06T17:12:02.287Z,11.86
2022-10-06T17:14:35.749Z,11.81
2022-10-06T17:17:03.134Z,11.71
2022-10-06T17:19:31.134Z,11.70
2022-10-06T17:22:00.019Z,11.63
2022-10-06T17:24:29.911Z,11.60
2022-10-06T17:26:58.495Z,11.59
2022-10-06T17:29:28.827Z,11.52
2022-10-06T17:32:00.137Z,11.45
2022-10-06T17:34:33.397Z,11.35
2022-10-06T17:37:02.738Z,11.29
2022-10-06T17:39:30.178Z,11.22
2022-10-06T17:41:58.690Z,11.15
2022-10-06T17:44:27.830Z,11.10
2022-10-06T17:47:00.841Z,11.11
2022-10-06T17:49:32.817Z,11.14
2022-10-06T17:52:03.417Z,11.07
2022-10-06T17:54:33.551Z,10.98
2022-10-06T17:57:01.171Z,10.88
2022-10-06T17:59:32.089Z,10.78
2022-10-06T18:02:03.157Z,10.81
2022-10-06T18:04:31.868Z,10.80
2022-10-06T18:06:59.864Z,10.82
2022-10-06T18:09:30.546Z,10.83
2022-10-06T18:12:00.255Z,10.86
2022-10-06T18:14:33.420Z,10.85
2022-10-06T18:17:06.647Z,10.84
2022-10-06T18:19:37.148Z,10.80
2022-10-06T18:22:23.426Z,10.82
2022-10-06T18:25:09.009Z,10.88
2022-10-06T18:28:03.979Z,10.84
2022-10-06T18:30:49.173Z,10.77
2022-10-06T18:36:15.077Z,10.71
2022-10-06T18:38:54.173Z,10.75
2022-10-06T18:41:29.955Z,10.74
2022-10-06T18:44:05.097Z,10.71
2022-10-06T18:47:03.314Z,10.69
2022-10-06T18:49:33.832Z,10.66
2022-10-06T18:52:19.197Z,10.71
2022-10-06T18:55:12.359Z,10.70
2022-10-06T18:57:52.302Z,10.69
2022-10-06T19:00:22.765Z,10.68
2022-10-06T19:03:03.718Z,10.70
2022-10-06T19:05:39.666Z,10.70
2022-10-06T19:08:09.347Z,10.62
2022-10-06T19:10:57.735Z,10.58
2022-10-06T19:13:25.387Z,10.53
2022-10-06T19:15:52.766Z,10.47
2022-10-06T19:18:20.638Z,10.40
2022-10-06T19:20:52.302Z,10.43
2022-10-06T19:23:19.331Z,10.40
2022-10-06T19:26:06.236Z,10.48
2022-10-06T19:28:36.797Z,10.50
2022-10-06T19:31:30.407Z,10.51
2022-10-06T19:34:12.413Z,10.57
2022-10-06T19:36:43.034Z,10.52
2022-10-06T19:39:56.725Z,10.61
2022-10-06T19:42:51.681Z,10.66
2022-10-06T19:45:25.352Z,10.78
2022-10-06T19:48:00.612Z,10.72
2022-10-06T19:50:29.378Z,10.69
2022-10-06T19:53:08.719Z,10.68
2022-10-06T19:55:49.010Z,10.61
2022-10-06T19:58:23.775Z,10.66
2022-10-06T20:00:54.211Z,10.66
2022-10-06T20:03:24.567Z,10.67
2022-10-06T20:05:59.566Z,10.67
2022-10-06T20:08:27.581Z,10.63
2022-10-06T20:11:45.864Z,10.63
2022-10-06T20:14:24.660Z,10.62
2022-10-06T20:16:59.433Z,10.58
2022-10-06T20:19:32.205Z,10.48
2022-10-06T20:22:22.028Z,10.44
2022-10-06T20:24:56.084Z,10.41
2022-10-06T20:27:28.501Z,10.38
2022-10-06T20:30:00.666Z,10.35
2022-10-06T20:32:30.787Z,10.38
2022-10-06T20:34:58.644Z,10.32
2022-10-06T20:37:26.731Z,10.24
2022-10-06T20:40:27.828Z,10.28
2022-10-06T20:42:55.136Z,10.28
2022-10-06T20:45:25.954Z,10.27
2022-10-06T20:47:55.060Z,10.29
2022-10-06T20:50:21.961Z,10.29
2022-10-06T20:52:49.185Z,10.27
2022-10-06T20:55:18.884Z,10.24
2022-10-06T20:57:49.063Z,10.23
2022-10-06T21:00:24.111Z,10.15
2022-10-06T21:02:51.392Z,10.11
2022-10-06T21:05:20.846Z,10.05
2022-10-06T21:07:49.037Z,10.04
2022-10-06T21:10:25.454Z,10.01
2022-10-06T21:12:52.816Z,10.07
2022-10-06T21:15:23.447Z,10.09
2022-10-06T21:17:50.634Z,10.04
2022-10-06T21:20:31.266Z,10.00
2022-10-06T21:23:07.041Z,9.95
2022-10-06T21:25:38.277Z,9.95
2022-10-06T21:28:11.805Z,9.98
2022-10-06T21:30:39.003Z,9.91
2022-10-06T21:33:06.228Z,9.86
2022-10-06T21:35:33.343Z,9.87
2022-10-06T21:38:00.585Z,9.80
2022-10-06T21:40:31.299Z,9.79
2022-10-06T21:43:00.572Z,9.77
2022-10-06T21:45:33.022Z,9.75
2022-10-06T21:48:00.527Z,9.69
2022-10-06T21:50:30.274Z,9.70
2022-10-06T21:52:57.778Z,9.66
2022-10-06T21:55:27.472Z,9.58
2022-10-06T21:57:55.067Z,9.61
2022-10-06T22:00:22.497Z,9.60
2022-10-06T22:02:49.649Z,9.61
2022-10-06T22:05:20.904Z,9.59
2022-10-06T22:07:50.197Z,9.63
2022-10-06T22:10:17.473Z,9.61
2022-10-06T22:12:49.412Z,9.56
2022-10-06T22:15:23.842Z,9.52
2022-10-06T22:17:53.779Z,9.56
2022-10-06T22:20:21.011Z,9.54
2022-10-06T22:22:52.055Z,9.51
2022-10-06T22:25:19.214Z,9.53
2022-10-06T22:27:52.586Z,9.56
2022-10-06T22:30:22.148Z,9.62
2022-10-06T22:32:49.187Z,9.63
2022-10-06T22:35:18.371Z,9.68
2022-10-06T22:37:45.375Z,9.70
2022-10-06T22:40:12.560Z,9.71
2022-10-06T22:42:39.214Z,9.69
2022-10-06T22:45:08.979Z,9.73
2022-10-06T22:47:35.740Z,9.68
2022-10-06T22:50:02.505Z,9.69
2022-10-06T22:52:29.149Z,9.71
2022-10-06T22:54:55.784Z,9.64
2022-10-06T22:57:22.536Z,9.62
2022-10-06T22:59:49.225Z,9.63
2022-10-06T23:02:16.120Z,9.65
2022-10-06T23:04:42.847Z,9.59
2022-10-06T23:07:09.554Z,9.56
2022-10-06T23:09:36.650Z,9.55
2022-10-06T23:12:03.440Z,9.52
2022-10-06T23:14:32.917Z,9.47
2022-10-06T23:16:59.658Z,9.47
2022-10-06T23:19:26.382Z,9.44
2022-10-06T23:21:53.038Z,9.47
2022-10-06T23:24:19.736Z,9.43
2022-10-06T23:26:47.056Z,9.38
2022-10-06T23:29:13.788Z,9.32
2022-10-06T23:31:40.647Z,9.24
2022-10-06T23:34:12.898Z,9.17
2022-10-06T23:36:45.017Z,9.14
2022-10-06T23:39:11.890Z,9.10
2022-10-06T23:41:38.714Z,9.10
2022-10-06T23:44:05.314Z,9.11
2022-10-06T23:46:31.981Z,9.07
2022-10-06T23:48:58.859Z,9.06
2022-10-06T23:51:25.640Z,9.00
2022-10-06T23:53:52.706Z,8.98
2022-10-06T23:56:20.762Z,8.91
2022-10-06T23:58:48.271Z,8.80
